Terminal Aerodrome Forecast
Issued by NWS Tulsa, OK

Home | Current Version | Previous Version | Text Only | Print | Product List | Glossary On
Versions: 1 2 3 4 5 6 7 8 9 10 11 12 13 14 15
000
FTUS44 KTSA 300036 AAA
TAFTUL
TAF AMD
KTUL 300036Z 3001/3024 10003KT P6SM VCTS SCT060CB
     FM300300 04005KT P6SM SCT100 BKN250
     FM301500 04007KT P6SM BKN100
     FM301900 06007KT P6SM SCT060 SCT100=

USA.gov is the U.S. government's official web portal to all federal, state and local government web resources and services.